sensor_id;sensor_type;location;lat;lon;timestamp;temperature;humidity
14682;DHT22;7429;52.498;13.480;2022-09-09T00:02:01;15.30;99.90
14682;DHT22;7429;52.498;13.480;2022-09-09T00:05:16;15.30;99.90
14682;DHT22;7429;52.498;13.480;2022-09-09T00:08:38;15.30;99.90
14682;DHT22;7429;52.498;13.480;2022-09-09T00:11:49;15.20;99.90
14682;DHT22;7429;52.498;13.480;2022-09-09T00:14:58;15.20;99.90
14682;DHT22;7429;52.498;13.480;2022-09-09T00:18:15;15.10;99.90
14682;DHT22;7429;52.498;13.480;2022-09-09T00:21:24;15.10;99.90
14682;DHT22;7429;52.498;13.480;2022-09-09T00:24:37;15.20;99.90
14682;DHT22;7429;52.498;13.480;2022-09-09T00:27:47;15.20;99.90
14682;DHT22;7429;52.498;13.480;2022-09-09T00:30:51;15.20;99.90
14682;DHT22;7429;52.498;13.480;2022-09-09T00:34:00;15.20;99.90
14682;DHT22;7429;52.498;13.480;2022-09-09T00:37:08;15.20;99.90
14682;DHT22;7429;52.498;13.480;2022-09-09T00:40:22;15.20;99.90
14682;DHT22;7429;52.498;13.480;2022-09-09T00:43:29;15.20;99.90
14682;DHT22;7429;52.498;13.480;2022-09-09T00:46:56;15.10;99.90
14682;DHT22;7429;52.498;13.480;2022-09-09T00:50:13;15.10;99.90
14682;DHT22;7429;52.498;13.480;2022-09-09T00:53:37;15.10;99.90
14682;DHT22;7429;52.498;13.480;2022-09-09T00:56:53;15.10;99.90
14682;DHT22;7429;52.498;13.480;2022-09-09T01:00:22;15.10;99.90
14682;DHT22;7429;52.498;13.480;2022-09-09T01:03:34;15.00;99.90
14682;DHT22;7429;52.498;13.480;2022-09-09T01:06:38;15.00;99.90
14682;DHT22;7429;52.498;13.480;2022-09-09T01:09:52;15.10;99.90
14682;DHT22;7429;52.498;13.480;2022-09-09T01:13:05;15.00;99.90
14682;DHT22;7429;52.498;13.480;2022-09-09T01:16:16;15.00;99.90
14682;DHT22;7429;52.498;13.480;2022-09-09T01:19:27;14.90;99.90
14682;DHT22;7429;52.498;13.480;2022-09-09T01:22:48;14.90;99.90
14682;DHT22;7429;52.498;13.480;2022-09-09T01:26:15;14.90;99.90
14682;DHT22;7429;52.498;13.480;2022-09-09T01:29:25;14.80;99.90
14682;DHT22;7429;52.498;13.480;2022-09-09T01:32:40;14.80;99.90
14682;DHT22;7429;52.498;13.480;2022-09-09T01:35:49;14.80;99.90
14682;DHT22;7429;52.498;13.480;2022-09-09T01:38:58;14.70;99.90
14682;DHT22;7429;52.498;13.480;2022-09-09T01:42:05;14.70;99.90
14682;DHT22;7429;52.498;13.480;2022-09-09T01:45:10;14.70;99.90
14682;DHT22;7429;52.498;13.480;2022-09-09T01:48:13;14.70;99.90
14682;DHT22;7429;52.498;13.480;2022-09-09T01:51:19;14.70;99.90
14682;DHT22;7429;52.498;13.480;2022-09-09T01:54:28;14.70;99.90
14682;DHT22;7429;52.498;13.480;2022-09-09T01:57:42;14.70;99.90
14682;DHT22;7429;52.498;13.480;2022-09-09T02:01:02;14.70;99.90
14682;DHT22;7429;52.498;13.480;2022-09-09T02:04:27;14.60;99.90
14682;DHT22;7429;52.498;13.480;2022-09-09T02:07:42;14.60;99.90
14682;DHT22;7429;52.498;13.480;2022-09-09T02:11:03;14.60;99.90
14682;DHT22;7429;52.498;13.480;2022-09-09T02:14:19;14.60;99.90
14682;DHT22;7429;52.498;13.480;2022-09-09T02:17:28;14.60;99.90
14682;DHT22;7429;52.498;13.480;2022-09-09T02:20:39;14.60;99.90
14682;DHT22;7429;52.498;13.480;2022-09-09T02:23:47;14.60;99.90
14682;DHT22;7429;52.498;13.480;2022-09-09T02:26:53;14.60;99.90
14682;DHT22;7429;52.498;13.480;2022-09-09T02:30:00;14.60;99.90
14682;DHT22;7429;52.498;13.480;2022-09-09T02:33:12;14.50;99.90
14682;DHT22;7429;52.498;13.480;2022-09-09T02:36:22;14.50;99.90
14682;DHT22;7429;52.498;13.480;2022-09-09T02:39:27;14.50;99.90
14682;DHT22;7429;52.498;13.480;2022-09-09T02:42:30;14.50;99.90
14682;DHT22;7429;52.498;13.480;2022-09-09T02:45:42;14.50;99.90
14682;DHT22;7429;52.498;13.480;2022-09-09T02:48:55;14.50;99.90
14682;DHT22;7429;52.498;13.480;2022-09-09T02:52:11;14.40;99.90
14682;DHT22;7429;52.498;13.480;2022-09-09T02:55:23;14.40;99.90
14682;DHT22;7429;52.498;13.480;2022-09-09T02:58:30;14.40;99.90
14682;DHT22;7429;52.498;13.480;2022-09-09T03:01:40;14.40;99.90
14682;DHT22;7429;52.498;13.480;2022-09-09T03:04:44;14.40;99.90
14682;DHT22;7429;52.498;13.480;2022-09-09T03:07:53;14.30;99.90
14682;DHT22;7429;52.498;13.480;2022-09-09T03:10:58;14.40;99.90
14682;DHT22;7429;52.498;13.480;2022-09-09T03:14:05;14.30;99.90
14682;DHT22;7429;52.498;13.480;2022-09-09T03:17:12;14.30;99.90
14682;DHT22;7429;52.498;13.480;2022-09-09T03:20:23;14.20;99.90
14682;DHT22;7429;52.498;13.480;2022-09-09T03:23:27;14.20;99.90
14682;DHT22;7429;52.498;13.480;2022-09-09T03:26:33;14.20;99.90
14682;DHT22;7429;52.498;13.480;2022-09-09T03:29:37;14.20;99.90
14682;DHT22;7429;52.498;13.480;2022-09-09T03:32:45;14.20;99.90
14682;DHT22;7429;52.498;13.480;2022-09-09T03:35:50;14.20;99.90
14682;DHT22;7429;52.498;13.480;2022-09-09T03:38:55;14.20;99.90
14682;DHT22;7429;52.498;13.480;2022-09-09T03:42:00;14.10;99.90
14682;DHT22;7429;52.498;13.480;2022-09-09T03:45:07;14.10;99.90
14682;DHT22;7429;52.498;13.480;2022-09-09T03:48:17;14.20;99.90
14682;DHT22;7429;52.498;13.480;2022-09-09T03:51:21;14.10;99.90
14682;DHT22;7429;52.498;13.480;2022-09-09T03:54:25;14.00;99.90
14682;DHT22;7429;52.498;13.480;2022-09-09T03:57:30;14.00;99.90
14682;DHT22;7429;52.498;13.480;2022-09-09T04:00:38;14.00;99.90
14682;DHT22;7429;52.498;13.480;2022-09-09T04:03:45;14.00;99.90
14682;DHT22;7429;52.498;13.480;2022-09-09T04:06:48;14.00;99.90
14682;DHT22;7429;52.498;13.480;2022-09-09T04:09:52;14.00;99.90
14682;DHT22;7429;52.498;13.480;2022-09-09T04:12:56;13.90;99.90
14682;DHT22;7429;52.498;13.480;2022-09-09T04:16:00;13.90;99.90
14682;DHT22;7429;52.498;13.480;2022-09-09T04:19:07;13.80;99.90
14682;DHT22;7429;52.498;13.480;2022-09-09T04:22:10;13.80;99.90
14682;DHT22;7429;52.498;13.480;2022-09-09T04:25:14;13.80;99.90
14682;DHT22;7429;52.498;13.480;2022-09-09T04:28:21;13.80;99.90
14682;DHT22;7429;52.498;13.480;2022-09-09T04:31:25;13.80;99.90
14682;DHT22;7429;52.498;13.480;2022-09-09T04:34:32;13.80;99.90
14682;DHT22;7429;52.498;13.480;2022-09-09T04:37:35;13.80;99.90
14682;DHT22;7429;52.498;13.480;2022-09-09T04:40:38;13.80;99.90
14682;DHT22;7429;52.498;13.480;2022-09-09T04:43:45;13.80;99.90
14682;DHT22;7429;52.498;13.480;2022-09-09T04:46:49;13.80;99.90
14682;DHT22;7429;52.498;13.480;2022-09-09T04:49:53;13.80;99.90
14682;DHT22;7429;52.498;13.480;2022-09-09T04:53:00;13.80;99.90
14682;DHT22;7429;52.498;13.480;2022-09-09T04:56:07;13.80;99.90
14682;DHT22;7429;52.498;13.480;2022-09-09T04:59:18;13.90;99.90
14682;DHT22;7429;52.498;13.480;2022-09-09T05:02:27;13.90;99.90
14682;DHT22;7429;52.498;13.480;2022-09-09T05:05:35;14.00;99.90
14682;DHT22;7429;52.498;13.480;2022-09-09T05:08:39;14.00;99.90
14682;DHT22;7429;52.498;13.480;2022-09-09T05:11:43;14.10;99.90
14682;DHT22;7429;52.498;13.480;2022-09-09T05:14:56;14.10;99.90
14682;DHT22;7429;52.498;13.480;2022-09-09T05:18:00;14.20;99.90
14682;DHT22;7429;52.498;13.480;2022-09-09T05:21:07;14.20;99.90
14682;DHT22;7429;52.498;13.480;2022-09-09T05:24:10;14.20;99.90
14682;DHT22;7429;52.498;13.480;2022-09-09T05:27:14;14.30;99.90
14682;DHT22;7429;52.498;13.480;2022-09-09T05:30:17;14.30;99.90
14682;DHT22;7429;52.498;13.480;2022-09-09T05:33:20;14.40;99.90
14682;DHT22;7429;52.498;13.480;2022-09-09T05:36:25;14.50;99.90
14682;DHT22;7429;52.498;13.480;2022-09-09T05:39:30;14.50;99.90
14682;DHT22;7429;52.498;13.480;2022-09-09T05:42:34;14.60;99.90
14682;DHT22;7429;52.498;13.480;2022-09-09T05:45:38;14.70;99.90
14682;DHT22;7429;52.498;13.480;2022-09-09T05:48:42;14.70;99.90
14682;DHT22;7429;52.498;13.480;2022-09-09T05:51:59;14.80;99.90
14682;DHT22;7429;52.498;13.480;2022-09-09T05:55:03;14.80;99.90
14682;DHT22;7429;52.498;13.480;2022-09-09T05:58:07;14.90;99.90
14682;DHT22;7429;52.498;13.480;2022-09-09T06:01:13;15.00;99.90
14682;DHT22;7429;52.498;13.480;2022-09-09T06:04:17;15.10;99.90
14682;DHT22;7429;52.498;13.480;2022-09-09T06:07:25;15.20;99.90
14682;DHT22;7429;52.498;13.480;2022-09-09T06:10:28;15.20;99.90
14682;DHT22;7429;52.498;13.480;2022-09-09T06:13:32;15.30;99.90
14682;DHT22;7429;52.498;13.480;2022-09-09T06:16:35;15.30;99.90
14682;DHT22;7429;52.498;13.480;2022-09-09T06:19:46;15.30;99.90
14682;DHT22;7429;52.498;13.480;2022-09-09T06:22:51;15.40;99.90
14682;DHT22;7429;52.498;13.480;2022-09-09T06:26:02;15.40;99.90
14682;DHT22;7429;52.498;13.480;2022-09-09T06:29:08;15.50;99.90
14682;DHT22;7429;52.498;13.480;2022-09-09T06:32:12;15.50;99.90
14682;DHT22;7429;52.498;13.480;2022-09-09T06:35:15;15.60;99.90
14682;DHT22;7429;52.498;13.480;2022-09-09T06:38:19;15.70;99.90
14682;DHT22;7429;52.498;13.480;2022-09-09T06:41:25;15.80;99.90
14682;DHT22;7429;52.498;13.480;2022-09-09T06:44:31;15.80;99.90
14682;DHT22;7429;52.498;13.480;2022-09-09T06:47:38;15.90;99.90
14682;DHT22;7429;52.498;13.480;2022-09-09T06:50:42;15.90;99.90
14682;DHT22;7429;52.498;13.480;2022-09-09T06:53:49;16.00;99.90
14682;DHT22;7429;52.498;13.480;2022-09-09T06:56:52;16.10;99.90
14682;DHT22;7429;52.498;13.480;2022-09-09T06:59:58;16.20;99.90
14682;DHT22;7429;52.498;13.480;2022-09-09T07:03:01;16.30;99.90
14682;DHT22;7429;52.498;13.480;2022-09-09T07:06:05;16.30;99.90
14682;DHT22;7429;52.498;13.480;2022-09-09T07:09:12;16.40;99.90
14682;DHT22;7429;52.498;13.480;2022-09-09T07:12:19;16.40;99.90
14682;DHT22;7429;52.498;13.480;2022-09-09T07:15:28;16.50;99.90
14682;DHT22;7429;52.498;13.480;2022-09-09T07:18:32;16.50;99.90
14682;DHT22;7429;52.498;13.480;2022-09-09T07:21:37;16.60;99.90
14682;DHT22;7429;52.498;13.480;2022-09-09T07:24:44;16.80;99.90
14682;DHT22;7429;52.498;13.480;2022-09-09T07:27:49;16.90;99.90
14682;DHT22;7429;52.498;13.480;2022-09-09T07:30:53;16.90;99.90
14682;DHT22;7429;52.498;13.480;2022-09-09T07:33:57;17.00;99.90
14682;DHT22;7429;52.498;13.480;2022-09-09T07:37:01;17.10;99.90
14682;DHT22;7429;52.498;13.480;2022-09-09T07:40:08;17.10;99.90
14682;DHT22;7429;52.498;13.480;2022-09-09T07:43:12;17.10;99.90
14682;DHT22;7429;52.498;13.480;2022-09-09T07:46:19;17.30;99.90
14682;DHT22;7429;52.498;13.480;2022-09-09T07:49:24;17.40;99.90
14682;DHT22;7429;52.498;13.480;2022-09-09T07:52:34;17.50;99.90
14682;DHT22;7429;52.498;13.480;2022-09-09T07:55:41;17.70;99.90
14682;DHT22;7429;52.498;13.480;2022-09-09T07:58:45;17.80;99.90
14682;DHT22;7429;52.498;13.480;2022-09-09T08:01:50;17.80;99.90
14682;DHT22;7429;52.498;13.480;2022-09-09T08:04:58;17.80;99.90
14682;DHT22;7429;52.498;13.480;2022-09-09T08:08:02;18.00;99.90
14682;DHT22;7429;52.498;13.480;2022-09-09T08:11:09;18.00;99.90
14682;DHT22;7429;52.498;13.480;2022-09-09T08:14:13;18.10;99.90
14682;DHT22;7429;52.498;13.480;2022-09-09T08:17:17;18.20;99.90
14682;DHT22;7429;52.498;13.480;2022-09-09T08:20:21;18.40;99.90
14682;DHT22;7429;52.498;13.480;2022-09-09T08:23:24;18.40;99.90
14682;DHT22;7429;52.498;13.480;2022-09-09T08:26:31;18.40;99.90
14682;DHT22;7429;52.498;13.480;2022-09-09T08:29:36;18.40;99.90
14682;DHT22;7429;52.498;13.480;2022-09-09T08:32:40;18.50;99.90
14682;DHT22;7429;52.498;13.480;2022-09-09T08:35:50;18.60;99.90
14682;DHT22;7429;52.498;13.480;2022-09-09T08:38:55;18.60;99.90
14682;DHT22;7429;52.498;13.480;2022-09-09T08:42:18;18.70;99.90
14682;DHT22;7429;52.498;13.480;2022-09-09T08:45:32;18.70;99.90
14682;DHT22;7429;52.498;13.480;2022-09-09T08:48:48;18.80;99.90
14682;DHT22;7429;52.498;13.480;2022-09-09T08:51:59;18.80;99.90
14682;DHT22;7429;52.498;13.480;2022-09-09T08:55:15;18.90;99.90
14682;DHT22;7429;52.498;13.480;2022-09-09T08:58:28;18.90;99.90
14682;DHT22;7429;52.498;13.480;2022-09-09T09:01:42;19.00;99.90
14682;DHT22;7429;52.498;13.480;2022-09-09T09:05:02;19.10;99.90
14682;DHT22;7429;52.498;13.480;2022-09-09T09:08:17;19.10;99.90
14682;DHT22;7429;52.498;13.480;2022-09-09T09:11:24;19.20;99.90
14682;DHT22;7429;52.498;13.480;2022-09-09T09:14:30;19.30;99.90
14682;DHT22;7429;52.498;13.480;2022-09-09T09:17:38;19.50;99.90
14682;DHT22;7429;52.498;13.480;2022-09-09T09:20:50;19.70;99.90
14682;DHT22;7429;52.498;13.480;2022-09-09T09:24:07;20.00;99.90
14682;DHT22;7429;52.498;13.480;2022-09-09T09:27:31;20.10;99.90
14682;DHT22;7429;52.498;13.480;2022-09-09T09:30:40;20.20;99.90
14682;DHT22;7429;52.498;13.480;2022-09-09T09:33:49;20.50;99.90
14682;DHT22;7429;52.498;13.480;2022-09-09T09:36:58;20.70;99.90
14682;DHT22;7429;52.498;13.480;2022-09-09T09:40:10;20.80;99.90
14682;DHT22;7429;52.498;13.480;2022-09-09T09:43:19;20.80;99.90
14682;DHT22;7429;52.498;13.480;2022-09-09T09:46:25;21.00;99.90
14682;DHT22;7429;52.498;13.480;2022-09-09T09:49:35;21.10;99.90
14682;DHT22;7429;52.498;13.480;2022-09-09T09:52:41;21.30;99.90
14682;DHT22;7429;52.498;13.480;2022-09-09T09:55:52;21.60;99.90
14682;DHT22;7429;52.498;13.480;2022-09-09T09:58:57;21.90;99.90
14682;DHT22;7429;52.498;13.480;2022-09-09T10:02:20;22.10;99.90
14682;DHT22;7429;52.498;13.480;2022-09-09T10:05:35;22.30;99.90
14682;DHT22;7429;52.498;13.480;2022-09-09T10:08:45;22.50;99.90
14682;DHT22;7429;52.498;13.480;2022-09-09T10:11:55;22.70;99.90
14682;DHT22;7429;52.498;13.480;2022-09-09T10:15:21;22.90;99.90
14682;DHT22;7429;52.498;13.480;2022-09-09T10:18:46;22.90;99.90
14682;DHT22;7429;52.498;13.480;2022-09-09T10:22:08;22.90;99.90
14682;DHT22;7429;52.498;13.480;2022-09-09T10:25:32;22.90;99.90
14682;DHT22;7429;52.498;13.480;2022-09-09T10:29:05;23.00;99.90
14682;DHT22;7429;52.498;13.480;2022-09-09T10:32:33;23.10;99.90
14682;DHT22;7429;52.498;13.480;2022-09-09T10:35:46;23.20;99.90
14682;DHT22;7429;52.498;13.480;2022-09-09T10:38:58;23.10;99.90
14682;DHT22;7429;52.498;13.480;2022-09-09T10:42:06;23.00;99.90
14682;DHT22;7429;52.498;13.480;2022-09-09T10:45:17;23.10;99.90
14682;DHT22;7429;52.498;13.480;2022-09-09T10:48:31;23.10;99.90
14682;DHT22;7429;52.498;13.480;2022-09-09T10:51:47;22.90;99.90
14682;DHT22;7429;52.498;13.480;2022-09-09T10:54:59;22.90;99.90
14682;DHT22;7429;52.498;13.480;2022-09-09T10:58:05;22.80;99.90
14682;DHT22;7429;52.498;13.480;2022-09-09T11:01:15;22.80;99.90
14682;DHT22;7429;52.498;13.480;2022-09-09T11:04:22;23.00;99.90
14682;DHT22;7429;52.498;13.480;2022-09-09T11:07:34;23.30;99.90
14682;DHT22;7429;52.498;13.480;2022-09-09T11:10:45;23.40;99.90
14682;DHT22;7429;52.498;13.480;2022-09-09T11:13:57;23.40;99.90
14682;DHT22;7429;52.498;13.480;2022-09-09T11:17:09;23.70;99.90
14682;DHT22;7429;52.498;13.480;2022-09-09T11:20:14;24.00;99.90
14682;DHT22;7429;52.498;13.480;2022-09-09T11:23:22;24.20;99.90
14682;DHT22;7429;52.498;13.480;2022-09-09T11:26:33;24.00;99.90
14682;DHT22;7429;52.498;13.480;2022-09-09T11:29:50;24.10;99.90
14682;DHT22;7429;52.498;13.480;2022-09-09T11:33:23;24.30;99.90
14682;DHT22;7429;52.498;13.480;2022-09-09T11:37:02;24.50;99.90
14682;DHT22;7429;52.498;13.480;2022-09-09T11:40:23;24.50;99.90
14682;DHT22;7429;52.498;13.480;2022-09-09T11:43:30;24.70;99.90
14682;DHT22;7429;52.498;13.480;2022-09-09T11:46:36;24.70;99.90
14682;DHT22;7429;52.498;13.480;2022-09-09T11:49:42;25.00;99.90
14682;DHT22;7429;52.498;13.480;2022-09-09T11:52:48;25.00;99.90
14682;DHT22;7429;52.498;13.480;2022-09-09T11:56:04;25.00;99.90
14682;DHT22;7429;52.498;13.480;2022-09-09T11:59:20;24.90;99.90
14682;DHT22;7429;52.498;13.480;2022-09-09T12:02:27;24.30;99.90
14682;DHT22;7429;52.498;13.480;2022-09-09T12:05:38;24.10;99.90
14682;DHT22;7429;52.498;13.480;2022-09-09T12:08:44;24.00;99.90
14682;DHT22;7429;52.498;13.480;2022-09-09T12:11:49;24.30;99.90
14682;DHT22;7429;52.498;13.480;2022-09-09T12:15:18;24.40;99.90
14682;DHT22;7429;52.498;13.480;2022-09-09T12:18:24;24.50;99.90
14682;DHT22;7429;52.498;13.480;2022-09-09T12:21:34;24.90;99.90
14682;DHT22;7429;52.498;13.480;2022-09-09T12:24:47;25.30;99.90
14682;DHT22;7429;52.498;13.480;2022-09-09T12:28:03;25.60;99.90
14682;DHT22;7429;52.498;13.480;2022-09-09T12:31:14;25.80;99.90
14682;DHT22;7429;52.498;13.480;2022-09-09T12:34:38;25.70;99.90
14682;DHT22;7429;52.498;13.480;2022-09-09T12:37:46;25.60;99.90
14682;DHT22;7429;52.498;13.480;2022-09-09T12:40:54;25.50;99.90
14682;DHT22;7429;52.498;13.480;2022-09-09T12:44:05;25.20;99.90
14682;DHT22;7429;52.498;13.480;2022-09-09T12:47:11;24.80;99.90
14682;DHT22;7429;52.498;13.480;2022-09-09T12:50:17;24.60;99.90
14682;DHT22;7429;52.498;13.480;2022-09-09T12:53:24;24.60;99.90
14682;DHT22;7429;52.498;13.480;2022-09-09T12:56:30;24.60;99.90
14682;DHT22;7429;52.498;13.480;2022-09-09T12:59:38;24.50;99.90
14682;DHT22;7429;52.498;13.480;2022-09-09T13:02:50;24.40;99.90
14682;DHT22;7429;52.498;13.480;2022-09-09T13:05:58;24.30;99.90
14682;DHT22;7429;52.498;13.480;2022-09-09T13:09:13;24.20;99.90
14682;DHT22;7429;52.498;13.480;2022-09-09T13:12:19;24.20;99.90
14682;DHT22;7429;52.498;13.480;2022-09-09T13:15:27;24.20;99.90
14682;DHT22;7429;52.498;13.480;2022-09-09T13:18:33;24.20;99.90
14682;DHT22;7429;52.498;13.480;2022-09-09T13:21:38;24.20;99.90
14682;DHT22;7429;52.498;13.480;2022-09-09T13:24:42;24.20;99.90
14682;DHT22;7429;52.498;13.480;2022-09-09T13:27:53;24.20;99.90
14682;DHT22;7429;52.498;13.480;2022-09-09T13:31:01;24.20;99.90
14682;DHT22;7429;52.498;13.480;2022-09-09T13:34:11;24.30;99.90
14682;DHT22;7429;52.498;13.480;2022-09-09T13:37:22;24.30;99.90
14682;DHT22;7429;52.498;13.480;2022-09-09T13:40:27;24.30;99.90
14682;DHT22;7429;52.498;13.480;2022-09-09T13:43:34;24.50;99.90
14682;DHT22;7429;52.498;13.480;2022-09-09T13:46:40;24.50;99.90
14682;DHT22;7429;52.498;13.480;2022-09-09T13:49:44;24.50;99.90
14682;DHT22;7429;52.498;13.480;2022-09-09T13:52:48;24.40;99.90
14682;DHT22;7429;52.498;13.480;2022-09-09T13:55:53;24.60;99.90
14682;DHT22;7429;52.498;13.480;2022-09-09T13:58:56;25.10;99.90
14682;DHT22;7429;52.498;13.480;2022-09-09T14:02:01;25.30;99.90
14682;DHT22;7429;52.498;13.480;2022-09-09T14:05:04;25.20;99.90
14682;DHT22;7429;52.498;13.480;2022-09-09T14:08:22;25.00;99.90
14682;DHT22;7429;52.498;13.480;2022-09-09T14:11:26;24.80;99.90
14682;DHT22;7429;52.498;13.480;2022-09-09T14:14:30;24.60;99.90
14682;DHT22;7429;52.498;13.480;2022-09-09T14:17:34;24.50;99.90
14682;DHT22;7429;52.498;13.480;2022-09-09T14:20:37;24.30;99.90
14682;DHT22;7429;52.498;13.480;2022-09-09T14:23:41;24.30;99.90
14682;DHT22;7429;52.498;13.480;2022-09-09T14:26:44;24.30;99.90
14682;DHT22;7429;52.498;13.480;2022-09-09T14:29:47;24.20;99.90
14682;DHT22;7429;52.498;13.480;2022-09-09T14:32:51;24.10;99.90
14682;DHT22;7429;52.498;13.480;2022-09-09T14:35:56;24.10;99.90
14682;DHT22;7429;52.498;13.480;2022-09-09T14:38:59;24.10;99.90
14682;DHT22;7429;52.498;13.480;2022-09-09T14:42:02;24.30;99.90
14682;DHT22;7429;52.498;13.480;2022-09-09T14:45:07;24.30;99.90
14682;DHT22;7429;52.498;13.480;2022-09-09T14:48:12;24.80;99.90
14682;DHT22;7429;52.498;13.480;2022-09-09T14:51:18;25.40;99.90
14682;DHT22;7429;52.498;13.480;2022-09-09T14:54:22;25.80;99.90
14682;DHT22;7429;52.498;13.480;2022-09-09T14:57:25;25.70;99.90
14682;DHT22;7429;52.498;13.480;2022-09-09T15:00:28;25.50;99.90
14682;DHT22;7429;52.498;13.480;2022-09-09T15:03:33;25.10;99.90
14682;DHT22;7429;52.498;13.480;2022-09-09T15:06:36;24.80;99.90
14682;DHT22;7429;52.498;13.480;2022-09-09T15:09:40;24.60;99.90
14682;DHT22;7429;52.498;13.480;2022-09-09T15:12:44;24.40;99.90
14682;DHT22;7429;52.498;13.480;2022-09-09T15:15:47;24.30;99.90
14682;DHT22;7429;52.498;13.480;2022-09-09T15:18:54;24.20;99.90
14682;DHT22;7429;52.498;13.480;2022-09-09T15:21:58;24.10;99.90
14682;DHT22;7429;52.498;13.480;2022-09-09T15:25:02;24.00;99.90
14682;DHT22;7429;52.498;13.480;2022-09-09T15:28:05;24.20;99.90
14682;DHT22;7429;52.498;13.480;2022-09-09T15:31:12;24.60;99.90
14682;DHT22;7429;52.498;13.480;2022-09-09T15:34:20;24.90;99.90
14682;DHT22;7429;52.498;13.480;2022-09-09T15:37:23;25.00;99.90
14682;DHT22;7429;52.498;13.480;2022-09-09T15:40:26;24.80;99.90
14682;DHT22;7429;52.498;13.480;2022-09-09T15:43:29;24.30;99.90
14682;DHT22;7429;52.498;13.480;2022-09-09T15:46:33;24.00;99.90
14682;DHT22;7429;52.498;13.480;2022-09-09T15:49:40;23.80;99.90
14682;DHT22;7429;52.498;13.480;2022-09-09T15:52:44;23.70;99.90
14682;DHT22;7429;52.498;13.480;2022-09-09T15:55:47;23.60;99.90
14682;DHT22;7429;52.498;13.480;2022-09-09T15:58:55;23.60;99.90
14682;DHT22;7429;52.498;13.480;2022-09-09T16:02:01;23.60;99.90
14682;DHT22;7429;52.498;13.480;2022-09-09T16:05:06;23.40;99.90
14682;DHT22;7429;52.498;13.480;2022-09-09T16:08:10;23.40;99.90
14682;DHT22;7429;52.498;13.480;2022-09-09T16:11:17;23.20;99.90
14682;DHT22;7429;52.498;13.480;2022-09-09T16:14:21;23.20;99.90
14682;DHT22;7429;52.498;13.480;2022-09-09T16:17:24;23.20;99.90
14682;DHT22;7429;52.498;13.480;2022-09-09T16:20:30;23.20;99.90
14682;DHT22;7429;52.498;13.480;2022-09-09T16:23:34;23.20;99.90
14682;DHT22;7429;52.498;13.480;2022-09-09T16:26:39;23.20;99.90
14682;DHT22;7429;52.498;13.480;2022-09-09T16:29:44;23.10;99.90
14682;DHT22;7429;52.498;13.480;2022-09-09T16:32:47;23.00;99.90
14682;DHT22;7429;52.498;13.480;2022-09-09T16:35:52;22.90;99.90
14682;DHT22;7429;52.498;13.480;2022-09-09T16:38:56;22.70;99.90
14682;DHT22;7429;52.498;13.480;2022-09-09T16:42:00;22.70;99.90
14682;DHT22;7429;52.498;13.480;2022-09-09T16:45:05;22.60;99.90
14682;DHT22;7429;52.498;13.480;2022-09-09T16:48:08;22.40;99.90
14682;DHT22;7429;52.498;13.480;2022-09-09T16:51:16;22.30;99.90
14682;DHT22;7429;52.498;13.480;2022-09-09T16:54:20;22.30;99.90
14682;DHT22;7429;52.498;13.480;2022-09-09T16:57:25;22.20;99.90
14682;DHT22;7429;52.498;13.480;2022-09-09T17:00:30;22.10;99.90
14682;DHT22;7429;52.498;13.480;2022-09-09T17:03:33;22.00;99.90
14682;DHT22;7429;52.498;13.480;2022-09-09T17:06:37;21.90;99.90
14682;DHT22;7429;52.498;13.480;2022-09-09T17:09:40;21.90;99.90
14682;DHT22;7429;52.498;13.480;2022-09-09T17:12:44;21.80;99.90
14682;DHT22;7429;52.498;13.480;2022-09-09T17:15:47;21.50;99.90
14682;DHT22;7429;52.498;13.480;2022-09-09T17:18:51;21.30;99.90
14682;DHT22;7429;52.498;13.480;2022-09-09T17:21:55;21.00;99.90
14682;DHT22;7429;52.498;13.480;2022-09-09T17:25:18;20.90;99.90
14682;DHT22;7429;52.498;13.480;2022-09-09T17:28:21;20.80;99.90
14682;DHT22;7429;52.498;13.480;2022-09-09T17:31:29;20.70;99.90
14682;DHT22;7429;52.498;13.480;2022-09-09T17:34:34;20.70;99.90
14682;DHT22;7429;52.498;13.480;2022-09-09T17:37:39;20.50;99.90
14682;DHT22;7429;52.498;13.480;2022-09-09T17:40:42;20.50;99.90
14682;DHT22;7429;52.498;13.480;2022-09-09T17:43:45;20.40;99.90
14682;DHT22;7429;52.498;13.480;2022-09-09T17:46:49;20.40;99.90
14682;DHT22;7429;52.498;13.480;2022-09-09T17:49:52;20.30;99.90
14682;DHT22;7429;52.498;13.480;2022-09-09T17:52:56;20.20;99.90
14682;DHT22;7429;52.498;13.480;2022-09-09T17:56:03;20.00;99.90
14682;DHT22;7429;52.498;13.480;2022-09-09T17:59:08;19.80;99.90
14682;DHT22;7429;52.498;13.480;2022-09-09T18:02:11;19.70;99.90
14682;DHT22;7429;52.498;13.480;2022-09-09T18:05:15;19.60;99.90
14682;DHT22;7429;52.498;13.480;2022-09-09T18:08:21;19.50;99.90
14682;DHT22;7429;52.498;13.480;2022-09-09T18:11:25;19.30;99.90
14682;DHT22;7429;52.498;13.480;2022-09-09T18:14:30;19.20;99.90
14682;DHT22;7429;52.498;13.480;2022-09-09T18:17:34;19.10;99.90
14682;DHT22;7429;52.498;13.480;2022-09-09T18:20:43;19.00;99.90
14682;DHT22;7429;52.498;13.480;2022-09-09T18:23:47;18.90;99.90
14682;DHT22;7429;52.498;13.480;2022-09-09T18:26:52;18.90;99.90
14682;DHT22;7429;52.498;13.480;2022-09-09T18:29:55;18.80;99.90
14682;DHT22;7429;52.498;13.480;2022-09-09T18:32:58;18.70;99.90
14682;DHT22;7429;52.498;13.480;2022-09-09T18:36:06;18.70;99.90
14682;DHT22;7429;52.498;13.480;2022-09-09T18:39:12;18.50;99.90
14682;DHT22;7429;52.498;13.480;2022-09-09T18:42:16;18.50;99.90
14682;DHT22;7429;52.498;13.480;2022-09-09T18:45:19;18.40;99.90
14682;DHT22;7429;52.498;13.480;2022-09-09T18:48:23;18.30;99.90
14682;DHT22;7429;52.498;13.480;2022-09-09T18:51:28;18.30;99.90
14682;DHT22;7429;52.498;13.480;2022-09-09T18:54:32;18.30;99.90
14682;DHT22;7429;52.498;13.480;2022-09-09T18:57:35;18.30;99.90
14682;DHT22;7429;52.498;13.480;2022-09-09T19:00:39;18.20;99.90
14682;DHT22;7429;52.498;13.480;2022-09-09T19:03:42;18.20;99.90
14682;DHT22;7429;52.498;13.480;2022-09-09T19:06:46;18.10;99.90
14682;DHT22;7429;52.498;13.480;2022-09-09T19:09:51;18.10;99.90
14682;DHT22;7429;52.498;13.480;2022-09-09T19:12:54;18.10;99.90
14682;DHT22;7429;52.498;13.480;2022-09-09T19:16:02;18.10;99.90
14682;DHT22;7429;52.498;13.480;2022-09-09T19:19:08;18.10;99.90
14682;DHT22;7429;52.498;13.480;2022-09-09T19:22:13;18.10;99.90
14682;DHT22;7429;52.498;13.480;2022-09-09T19:25:17;18.10;99.90
14682;DHT22;7429;52.498;13.480;2022-09-09T19:28:20;18.10;99.90
14682;DHT22;7429;52.498;13.480;2022-09-09T19:31:23;18.00;99.90
14682;DHT22;7429;52.498;13.480;2022-09-09T19:34:28;17.90;99.90
14682;DHT22;7429;52.498;13.480;2022-09-09T19:37:32;17.90;99.90
14682;DHT22;7429;52.498;13.480;2022-09-09T19:40:36;17.90;99.90
14682;DHT22;7429;52.498;13.480;2022-09-09T19:43:40;17.80;99.90
14682;DHT22;7429;52.498;13.480;2022-09-09T19:46:44;17.70;99.90